Faison, North Carolina
Current Conditions -  °F | °C
As of 11:55 AM on Saturday 22 Nov 2014 (Local Time) from KDPL Reporting Station
Clear Clear  
Wind Chill: 52°   Ceiling: Unl
Heat Index: 52°   Visibility: 10mi
Dew Point: 21°   Wind: 0mph
Humidity: 30%   Direction: NA
Pressure: 30.53"   Gusts: NA
Location:  35.12°N, 78.14°W
Report Text: KDPL 221655Z AUTO 00000KT 10SM CLR 11/M06 A3053 RMK AO2 T01091060
Loading
Personal Weather Stations






























Interactive Weather Map New forecast layout! Learn more

10-Day Weather Forecast

Advertisements
Track Severe Weather on mobile